Villach, Austria
Current Conditions -  °F | °C
As of 5:20 PM on Wednesday 22 Oct 2014 (Local Time) from LOWK Reporting Station
Few Clouds Few Clouds  
Wind Chill: 52°   Ceiling: Unl
Heat Index: 52°   Visibility: 6mi
Dew Point: 27°   Wind: 8mph
Humidity: 38%   Direction: 340°NNW
Pressure: 29.8"   Gusts: NA
Location:  46.62°N, 13.85°E
Report Text: LOWK 221520Z 34007KT 9999 FEW055 11/M03 Q1009 NOSIG
Loading
Personal Weather Stations






























Interactive Weather Map
Tropical Storm Tracking
New forecast layout! Learn more

10-Day Weather Forecast

Advertisements
Track Severe Weather on mobile